createdAt,value
2022-10-16T00:01:48.189Z,9.77
2022-10-16T00:04:17.653Z,10.77
2022-10-16T00:06:47.268Z,14.63
2022-10-16T00:09:15.565Z,11.40
2022-10-16T00:11:44.335Z,12.95
2022-10-16T00:14:16.429Z,9.45
2022-10-16T00:16:44.881Z,11.35
2022-10-16T00:19:14.014Z,9.77
2022-10-16T00:21:43.174Z,9.95
2022-10-16T00:24:31.075Z,9.05
2022-10-16T00:26:59.400Z,8.45
2022-10-16T00:29:27.767Z,7.97
2022-10-16T00:31:56.078Z,10.57
2022-10-16T00:34:24.252Z,9.75
2022-10-16T00:36:52.443Z,7.80
2022-10-16T00:39:20.874Z,7.82
2022-10-16T00:41:50.690Z,8.20
2022-10-16T00:44:50.740Z,8.70
2022-10-16T00:47:28.402Z,6.95
2022-10-16T00:50:06.452Z,8.80
2022-10-16T00:52:35.119Z,6.15
2022-10-16T00:55:06.493Z,7.13
2022-10-16T00:57:36.812Z,6.85
2022-10-16T01:00:08.229Z,5.72
2022-10-16T01:02:37.195Z,6.93
2022-10-16T01:05:07.355Z,7.68
2022-10-16T01:07:51.347Z,5.43
2022-10-16T01:10:33.484Z,5.85
2022-10-16T01:13:11.597Z,4.80
2022-10-16T01:15:45.099Z,7.32
2022-10-16T01:18:20.682Z,8.05
2022-10-16T01:20:56.547Z,5.97
2022-10-16T01:23:45.559Z,5.05
2022-10-16T01:26:33.284Z,6.22
2022-10-16T01:29:10.944Z,8.45
2022-10-16T01:31:45.196Z,9.13
2022-10-16T01:34:20.453Z,7.00
2022-10-16T01:36:55.628Z,5.10
2022-10-16T01:39:30.753Z,5.47
2022-10-16T01:42:05.852Z,6.80
2022-10-16T01:44:38.214Z,10.45
2022-10-16T01:47:09.321Z,6.13
2022-10-16T01:49:41.413Z,7.53
2022-10-16T01:52:15.673Z,7.63
2022-10-16T01:55:03.185Z,9.07
2022-10-16T01:57:34.151Z,4.72
2022-10-16T02:00:14.357Z,4.35
2022-10-16T02:02:45.150Z,3.25
2022-10-16T02:05:24.741Z,6.32
2022-10-16T02:07:52.883Z,3.75
2022-10-16T02:10:21.588Z,4.63
2022-10-16T02:12:58.515Z,3.70
2022-10-16T02:15:28.007Z,8.73
2022-10-16T02:17:56.273Z,3.20
2022-10-16T02:20:32.487Z,2.90
2022-10-16T02:23:02.926Z,5.95
2022-10-16T02:25:36.666Z,4.45
2022-10-16T02:28:10.606Z,5.03
2022-10-16T02:30:45.722Z,7.43
2022-10-16T02:33:16.882Z,4.60
2022-10-16T02:35:48.499Z,4.93
2022-10-16T02:38:18.431Z,5.15
2022-10-16T02:40:47.157Z,5.75
2022-10-16T02:43:15.780Z,4.82
2022-10-16T02:45:45.556Z,7.82
2022-10-16T02:48:13.875Z,6.95
2022-10-16T02:50:42.028Z,4.65
2022-10-16T02:53:10.546Z,7.28
2022-10-16T02:55:38.659Z,4.47
2022-10-16T02:58:06.765Z,8.90
2022-10-16T03:00:34.986Z,3.47
2022-10-16T03:03:04.862Z,4.75
2022-10-16T03:05:33.027Z,5.22
2022-10-16T03:08:01.712Z,4.82
2022-10-16T03:10:30.106Z,3.17
2022-10-16T03:12:58.403Z,5.35
2022-10-16T03:15:26.890Z,3.10
2022-10-16T03:17:55.000Z,4.55
2022-10-16T03:20:24.522Z,12.10
2022-10-16T03:22:52.687Z,3.92
2022-10-16T03:25:20.760Z,4.82
2022-10-16T03:27:49.010Z,6.40
2022-10-16T03:30:17.364Z,4.30
2022-10-16T03:32:46.638Z,5.13
2022-10-16T03:35:14.966Z,6.60
2022-10-16T03:37:44.450Z,3.17
2022-10-16T03:40:13.488Z,6.57
2022-10-16T03:42:41.761Z,3.33
2022-10-16T03:45:11.139Z,3.80
2022-10-16T03:47:39.632Z,5.72
2022-10-16T03:50:09.413Z,6.07
2022-10-16T03:52:37.577Z,8.73
2022-10-16T03:55:08.903Z,4.10
2022-10-16T03:57:37.009Z,5.88
2022-10-16T04:00:06.098Z,4.18
2022-10-16T04:02:40.548Z,5.10
2022-10-16T04:05:09.491Z,6.72
2022-10-16T04:07:38.680Z,5.70
2022-10-16T04:10:09.487Z,5.07
2022-10-16T04:12:37.634Z,4.25
2022-10-16T04:15:06.513Z,6.82
2022-10-16T04:17:34.642Z,4.05
2022-10-16T04:20:02.930Z,4.43
2022-10-16T04:22:31.092Z,6.45
2022-10-16T04:24:59.203Z,5.65
2022-10-16T04:27:29.530Z,4.95
2022-10-16T04:29:58.816Z,4.03
2022-10-16T04:32:27.199Z,4.38
2022-10-16T04:34:55.839Z,4.78
2022-10-16T04:37:27.359Z,7.03
2022-10-16T04:39:56.278Z,5.30
2022-10-16T04:42:24.329Z,5.45
2022-10-16T04:44:54.064Z,6.70
2022-10-16T04:47:22.690Z,5.82
2022-10-16T04:49:50.852Z,6.50
2022-10-16T04:52:19.901Z,5.25
2022-10-16T04:54:48.170Z,4.28
2022-10-16T04:57:16.244Z,3.83
2022-10-16T04:59:44.412Z,8.48
2022-10-16T05:02:13.885Z,9.45
2022-10-16T05:04:41.963Z,5.95
2022-10-16T05:07:10.030Z,4.22
2022-10-16T05:09:38.077Z,8.05
2022-10-16T05:12:06.405Z,5.97
2022-10-16T05:14:34.440Z,6.03
2022-10-16T05:17:02.711Z,9.35
2022-10-16T05:19:32.161Z,11.13
2022-10-16T05:22:00.613Z,8.30
2022-10-16T05:24:28.995Z,9.10
2022-10-16T05:26:57.253Z,7.75
2022-10-16T05:29:25.520Z,5.63
2022-10-16T05:31:55.028Z,6.18
2022-10-16T05:34:23.558Z,11.10
2022-10-16T05:36:53.439Z,6.43
2022-10-16T05:39:21.780Z,7.32
2022-10-16T05:41:53.059Z,6.53
2022-10-16T05:44:21.562Z,7.15
2022-10-16T05:46:49.933Z,7.18
2022-10-16T05:49:18.300Z,7.18
2022-10-16T05:51:46.479Z,7.10
2022-10-16T05:54:16.459Z,8.15
2022-10-16T05:56:45.193Z,6.30
2022-10-16T05:59:13.319Z,15.55
2022-10-16T06:01:41.533Z,5.18
2022-10-16T06:06:39.922Z,5.40
2022-10-16T06:09:08.041Z,6.28
2022-10-16T06:11:38.860Z,7.75
2022-10-16T06:14:08.372Z,6.50
2022-10-16T06:16:38.801Z,8.52
2022-10-16T06:19:09.106Z,7.03
2022-10-16T06:21:37.366Z,8.13
2022-10-16T06:24:06.161Z,4.20
2022-10-16T06:26:34.389Z,4.07
2022-10-16T06:29:04.123Z,5.03
2022-10-16T06:31:34.312Z,5.97
2022-10-16T06:34:05.566Z,6.35
2022-10-16T06:36:33.710Z,5.53
2022-10-16T06:39:02.153Z,9.68
2022-10-16T06:41:30.405Z,5.10
2022-10-16T06:43:59.857Z,5.28
2022-10-16T06:46:30.063Z,5.85
2022-10-16T06:48:58.166Z,5.90
2022-10-16T06:51:27.601Z,9.23
2022-10-16T06:54:03.465Z,5.25
2022-10-16T06:56:33.681Z,7.05
2022-10-16T06:59:03.183Z,6.18
2022-10-16T07:01:33.650Z,7.72
2022-10-16T07:04:03.265Z,5.28
2022-10-16T07:06:35.560Z,8.82
2022-10-16T07:09:07.760Z,5.95
2022-10-16T07:11:36.659Z,5.22
2022-10-16T07:14:05.292Z,6.47
2022-10-16T07:16:35.531Z,5.22
2022-10-16T07:19:04.978Z,8.18
2022-10-16T07:21:37.351Z,6.32
2022-10-16T07:24:09.400Z,5.82
2022-10-16T07:26:40.031Z,7.05
2022-10-16T07:29:09.574Z,7.78
2022-10-16T07:31:39.416Z,6.18
2022-10-16T07:34:08.237Z,6.35
2022-10-16T07:36:36.532Z,8.05
2022-10-16T07:39:05.543Z,8.18
2022-10-16T07:41:37.666Z,10.07
2022-10-16T07:44:07.007Z,6.55
2022-10-16T07:46:36.800Z,6.88
2022-10-16T07:49:06.376Z,7.22
2022-10-16T07:51:34.760Z,7.60
2022-10-16T07:54:02.868Z,6.43
2022-10-16T07:56:33.644Z,4.65
2022-10-16T07:59:01.723Z,6.38
2022-10-16T08:01:30.003Z,5.00
2022-10-16T08:03:58.173Z,6.57
2022-10-16T08:06:28.237Z,7.03
2022-10-16T08:08:57.756Z,6.55
2022-10-16T08:11:26.869Z,6.60
2022-10-16T08:13:55.021Z,5.68
2022-10-16T08:16:23.403Z,9.15
2022-10-16T08:18:52.644Z,5.78
2022-10-16T08:21:23.984Z,7.13
2022-10-16T08:23:58.090Z,8.98
2022-10-16T08:26:28.657Z,9.85
2022-10-16T08:28:57.726Z,5.43
2022-10-16T08:31:27.061Z,6.75
2022-10-16T08:33:55.410Z,4.95
2022-10-16T08:36:23.578Z,5.90
2022-10-16T08:38:55.191Z,5.38
2022-10-16T08:42:09.311Z,7.72
2022-10-16T08:45:25.330Z,6.53
2022-10-16T08:48:09.356Z,6.03
2022-10-16T08:50:41.465Z,5.97
2022-10-16T08:53:17.955Z,9.70
2022-10-16T08:55:52.452Z,8.93
2022-10-16T08:58:22.774Z,7.32
2022-10-16T09:00:56.386Z,6.00
2022-10-16T09:03:41.672Z,5.82
2022-10-16T09:06:34.198Z,5.03
2022-10-16T09:09:28.048Z,5.20
2022-10-16T09:12:06.930Z,7.43
2022-10-16T09:14:54.679Z,4.30
2022-10-16T09:17:42.911Z,6.93
2022-10-16T09:20:29.759Z,7.38
2022-10-16T09:23:15.607Z,5.85
2022-10-16T09:25:48.590Z,6.65
2022-10-16T09:28:19.984Z,5.18
2022-10-16T09:30:50.698Z,5.20
2022-10-16T09:33:23.274Z,7.28
2022-10-16T09:35:54.939Z,4.65
2022-10-16T09:38:26.664Z,3.53
2022-10-16T09:40:59.145Z,5.05
2022-10-16T09:43:41.260Z,5.45
2022-10-16T09:46:23.283Z,4.22
2022-10-16T09:48:55.496Z,3.45
2022-10-16T09:51:27.707Z,5.40
2022-10-16T09:54:02.125Z,5.18
2022-10-16T09:56:34.281Z,5.80
2022-10-16T09:59:13.346Z,4.88
2022-10-16T10:01:45.653Z,3.95
2022-10-16T10:04:14.601Z,2.15
2022-10-16T10:06:48.670Z,4.90
2022-10-16T10:09:22.924Z,7.72
2022-10-16T10:11:55.430Z,4.93
2022-10-16T10:14:47.996Z,5.88
2022-10-16T10:17:21.065Z,3.60
2022-10-16T10:19:54.602Z,4.20
2022-10-16T10:22:31.529Z,4.55
2022-10-16T10:25:20.831Z,5.22
2022-10-16T10:28:05.769Z,9.00
2022-10-16T10:30:43.545Z,6.88
2022-10-16T10:33:27.025Z,3.90
2022-10-16T10:36:11.149Z,4.50
2022-10-16T10:38:49.258Z,5.13
2022-10-16T10:41:48.341Z,5.13
2022-10-16T10:44:32.998Z,7.28
2022-10-16T10:47:19.255Z,5.25
2022-10-16T10:50:03.261Z,3.65
2022-10-16T10:52:58.868Z,4.60
2022-10-16T10:55:38.868Z,5.32
2022-10-16T10:58:41.035Z,4.93
2022-10-16T11:01:14.284Z,5.07
2022-10-16T11:04:22.605Z,4.25
2022-10-16T11:06:57.933Z,6.55
2022-10-16T11:09:33.927Z,2.53
2022-10-16T11:12:09.680Z,6.43
2022-10-16T11:14:47.953Z,6.22
2022-10-16T11:17:23.156Z,5.70
2022-10-16T11:20:00.506Z,6.15
2022-10-16T11:22:35.153Z,5.80
2022-10-16T11:25:15.461Z,5.78
2022-10-16T11:27:50.050Z,6.20
2022-10-16T11:30:23.832Z,4.03
2022-10-16T11:33:06.532Z,4.65
2022-10-16T11:35:46.218Z,8.77
2022-10-16T11:38:30.414Z,4.43
2022-10-16T11:41:10.596Z,4.65
2022-10-16T11:43:44.905Z,6.35
2022-10-16T11:46:21.051Z,3.33
2022-10-16T11:48:57.389Z,3.70
2022-10-16T11:51:39.012Z,4.20
2022-10-16T11:54:22.333Z,6.05
2022-10-16T11:56:59.566Z,7.55
2022-10-16T11:59:39.052Z,3.45
2022-10-16T12:02:32.420Z,2.65
2022-10-16T12:05:17.536Z,4.13
2022-10-16T12:07:58.855Z,3.85
2022-10-16T12:10:32.614Z,7.55
2022-10-16T12:13:00.925Z,4.03
2022-10-16T12:15:58.861Z,6.10
2022-10-16T12:18:25.629Z,5.68
2022-10-16T12:21:00.906Z,7.22
2022-10-16T12:23:30.391Z,5.38
2022-10-16T12:26:01.116Z,8.10
2022-10-16T12:28:32.509Z,6.30
2022-10-16T12:31:03.502Z,6.72
2022-10-16T12:33:35.163Z,5.70
2022-10-16T12:36:07.169Z,4.55
2022-10-16T12:38:47.375Z,5.03
2022-10-16T12:41:28.730Z,4.38
2022-10-16T12:43:57.489Z,9.88
2022-10-16T12:46:39.219Z,5.47
2022-10-16T12:49:31.077Z,2.95
2022-10-16T12:51:59.961Z,5.25
2022-10-16T12:54:36.643Z,7.22
2022-10-16T12:57:27.118Z,5.15
2022-10-16T13:00:05.815Z,7.75
2022-10-16T13:03:49.664Z,5.93
2022-10-16T13:06:32.900Z,5.32
2022-10-16T13:09:19.450Z,7.50
2022-10-16T13:12:16.437Z,6.45
2022-10-16T13:15:11.127Z,6.30
2022-10-16T13:17:50.259Z,5.15
2022-10-16T13:20:31.923Z,6.45
2022-10-16T13:23:15.709Z,4.53
2022-10-16T13:26:03.197Z,7.85
2022-10-16T13:28:36.398Z,9.23
2022-10-16T13:31:05.958Z,8.95
2022-10-16T13:33:38.431Z,5.38
2022-10-16T13:36:08.141Z,8.25
2022-10-16T13:38:38.581Z,8.40
2022-10-16T13:41:16.327Z,5.03
2022-10-16T13:43:51.599Z,6.85
2022-10-16T13:46:22.908Z,4.70
2022-10-16T13:49:00.266Z,4.47
2022-10-16T13:51:29.916Z,6.45
2022-10-16T13:53:59.705Z,3.15
2022-10-16T13:56:30.454Z,5.47
2022-10-16T13:59:05.873Z,3.55
2022-10-16T14:01:37.657Z,5.13
2022-10-16T14:04:09.288Z,5.85
2022-10-16T14:06:42.111Z,4.72
2022-10-16T14:09:19.880Z,3.17
2022-10-16T14:11:52.304Z,6.38
2022-10-16T14:14:22.319Z,4.82
2022-10-16T14:16:51.042Z,5.03
2022-10-16T14:19:25.045Z,10.45
2022-10-16T14:21:54.332Z,4.93
2022-10-16T14:24:32.858Z,5.28
2022-10-16T14:27:32.282Z,7.40
2022-10-16T14:30:17.902Z,6.57
2022-10-16T14:32:57.588Z,4.45
2022-10-16T14:35:32.546Z,5.32
2022-10-16T14:38:03.945Z,4.43
2022-10-16T14:40:35.738Z,7.22
2022-10-16T14:43:06.111Z,7.57
2022-10-16T14:45:37.525Z,5.13
2022-10-16T14:48:19.859Z,5.63
2022-10-16T14:50:48.800Z,6.85
2022-10-16T14:53:17.262Z,8.48
2022-10-16T14:55:46.232Z,5.75
2022-10-16T14:58:19.529Z,6.63
2022-10-16T15:00:49.907Z,4.68
2022-10-16T15:03:18.398Z,5.28
2022-10-16T15:05:46.442Z,5.55
2022-10-16T15:08:14.518Z,8.15
2022-10-16T15:10:45.757Z,4.78
2022-10-16T15:13:15.540Z,5.45
2022-10-16T15:15:46.211Z,4.35
2022-10-16T15:18:20.985Z,5.88
2022-10-16T15:20:51.823Z,2.90
2022-10-16T15:23:22.898Z,5.20
2022-10-16T15:25:53.758Z,12.20
2022-10-16T15:28:24.039Z,7.18
2022-10-16T15:30:54.639Z,4.97
2022-10-16T15:33:28.362Z,7.38
2022-10-16T15:35:57.046Z,6.57
2022-10-16T15:38:29.979Z,6.30
2022-10-16T15:40:58.319Z,7.45
2022-10-16T15:43:26.541Z,6.68
2022-10-16T15:46:03.169Z,6.63
2022-10-16T15:48:33.912Z,5.90
2022-10-16T15:51:02.226Z,5.93
2022-10-16T15:53:30.352Z,7.25
2022-10-16T15:55:58.446Z,5.75
2022-10-16T15:58:26.568Z,7.90
2022-10-16T16:00:58.392Z,9.00
2022-10-16T16:03:26.583Z,10.07
2022-10-16T16:05:56.668Z,7.07
2022-10-16T16:08:25.168Z,9.82
2022-10-16T16:11:12.994Z,9.25
2022-10-16T16:13:42.470Z,10.25
2022-10-16T16:16:14.040Z,11.02
2022-10-16T16:18:43.149Z,14.23
2022-10-16T16:21:14.518Z,9.18
2022-10-16T16:23:42.648Z,6.95
2022-10-16T16:26:15.812Z,5.15
2022-10-16T16:28:45.514Z,8.85
2022-10-16T16:31:13.724Z,6.30
2022-10-16T16:33:41.801Z,7.65
2022-10-16T16:36:15.293Z,8.13
2022-10-16T16:38:45.413Z,6.80
2022-10-16T16:41:14.692Z,8.75
2022-10-16T16:43:43.138Z,10.02
2022-10-16T16:46:12.282Z,6.38
2022-10-16T16:48:40.910Z,8.32
2022-10-16T16:51:16.051Z,9.05
2022-10-16T16:53:47.070Z,8.23
2022-10-16T16:56:15.899Z,9.20
2022-10-16T16:58:46.855Z,8.02
2022-10-16T17:01:19.873Z,7.68
2022-10-16T17:03:50.692Z,7.25
2022-10-16T17:06:21.270Z,9.00
2022-10-16T17:08:51.724Z,8.85
2022-10-16T17:11:22.333Z,7.43
2022-10-16T17:13:56.669Z,7.53
2022-10-16T17:16:29.192Z,7.13
2022-10-16T17:18:57.621Z,10.25
2022-10-16T17:21:26.809Z,7.90
2022-10-16T17:23:56.306Z,9.50
2022-10-16T17:26:24.463Z,9.82
2022-10-16T17:28:57.074Z,7.55
2022-10-16T17:31:28.800Z,8.85
2022-10-16T17:33:57.309Z,6.63
2022-10-16T17:36:25.694Z,7.75
2022-10-16T17:38:53.727Z,13.07
2022-10-16T17:41:25.284Z,8.02
2022-10-16T17:43:53.582Z,7.95
2022-10-16T17:46:23.947Z,9.90
2022-10-16T17:48:54.743Z,9.88
2022-10-16T17:51:26.771Z,7.53
2022-10-16T17:53:57.573Z,11.45
2022-10-16T17:56:28.572Z,6.82
2022-10-16T17:59:00.681Z,6.70
2022-10-16T18:01:32.825Z,9.02
2022-10-16T18:04:05.186Z,8.95
2022-10-16T18:06:34.433Z,6.60
2022-10-16T18:09:03.553Z,11.38
2022-10-16T18:11:33.211Z,12.35
2022-10-16T18:14:01.430Z,11.13
2022-10-16T18:16:31.898Z,14.48
2022-10-16T18:19:00.806Z,8.57
2022-10-16T18:21:30.023Z,13.13
2022-10-16T18:24:01.218Z,14.07
2022-10-16T18:26:31.644Z,11.23
2022-10-16T18:29:00.569Z,12.25
2022-10-16T18:31:29.099Z,9.93
2022-10-16T18:33:58.026Z,8.77
2022-10-16T18:36:29.416Z,14.20
2022-10-16T18:38:58.697Z,14.88
2022-10-16T18:41:27.902Z,12.55
2022-10-16T18:43:57.494Z,10.55
2022-10-16T18:46:27.061Z,9.38
2022-10-16T18:48:58.705Z,13.40
2022-10-16T18:51:30.021Z,8.13
2022-10-16T18:54:01.226Z,9.60
2022-10-16T18:56:32.333Z,8.90
2022-10-16T18:59:04.840Z,8.52
2022-10-16T19:01:35.724Z,13.20
2022-10-16T19:04:07.890Z,8.88
2022-10-16T19:06:38.826Z,8.27
2022-10-16T19:09:08.483Z,7.75
2022-10-16T19:11:41.284Z,10.80
2022-10-16T19:14:12.254Z,8.27
2022-10-16T19:16:42.703Z,10.77
2022-10-16T19:19:14.562Z,12.00
2022-10-16T19:21:43.489Z,11.70
2022-10-16T19:24:15.142Z,6.75
2022-10-16T19:26:44.301Z,9.38
2022-10-16T19:29:14.045Z,9.63
2022-10-16T19:31:42.407Z,8.38
2022-10-16T19:34:12.303Z,8.95
2022-10-16T19:36:42.228Z,11.50
2022-10-16T19:39:14.754Z,11.20
2022-10-16T19:41:43.750Z,9.63
2022-10-16T19:44:17.183Z,12.73
2022-10-16T19:46:46.398Z,6.00
2022-10-16T19:49:21.113Z,14.73
2022-10-16T19:51:51.670Z,11.63
2022-10-16T19:54:20.260Z,9.90
2022-10-16T19:56:48.433Z,11.23
2022-10-16T19:59:20.067Z,11.77
2022-10-16T20:01:48.737Z,11.52
2022-10-16T20:04:17.143Z,8.98
2022-10-16T20:06:46.129Z,11.10
2022-10-16T20:09:14.643Z,9.05
2022-10-16T20:11:42.795Z,10.35
2022-10-16T20:14:10.899Z,11.40
2022-10-16T20:16:40.491Z,9.95
2022-10-16T20:19:08.600Z,10.50
2022-10-16T20:21:36.895Z,9.13
2022-10-16T20:24:06.577Z,12.70
2022-10-16T20:26:36.037Z,8.32
2022-10-16T20:29:05.380Z,10.88
2022-10-16T20:31:34.665Z,11.85
2022-10-16T20:34:08.800Z,9.77
2022-10-16T20:36:38.823Z,10.05
2022-10-16T20:39:08.472Z,17.90
2022-10-16T20:41:37.504Z,9.32
2022-10-16T20:44:06.378Z,11.13
2022-10-16T20:46:35.529Z,8.23
2022-10-16T20:49:16.294Z,11.07
2022-10-16T20:51:54.973Z,12.95
2022-10-16T20:54:23.230Z,17.92
2022-10-16T20:56:52.951Z,8.07
2022-10-16T20:59:21.165Z,13.45
2022-10-16T21:01:49.389Z,10.48
2022-10-16T21:04:18.960Z,11.68
2022-10-16T21:06:47.119Z,11.95
2022-10-16T21:09:15.242Z,12.05
2022-10-16T21:11:43.407Z,7.45
2022-10-16T21:14:11.530Z,13.45
2022-10-16T21:16:39.607Z,11.63
2022-10-16T21:19:08.205Z,12.60
2022-10-16T21:21:39.382Z,12.55
2022-10-16T21:24:12.135Z,16.60
2022-10-16T21:26:43.237Z,12.25
2022-10-16T21:29:11.557Z,11.07
2022-10-16T21:31:39.942Z,11.65
2022-10-16T21:34:08.443Z,16.48
2022-10-16T21:36:41.468Z,12.93
2022-10-16T21:39:12.477Z,10.85
2022-10-16T21:41:41.730Z,14.10
2022-10-16T21:44:11.084Z,15.07
2022-10-16T21:46:41.664Z,10.65
2022-10-16T21:49:15.537Z,16.42
2022-10-16T21:51:49.096Z,16.63
2022-10-16T21:54:20.675Z,16.55
2022-10-16T21:56:48.884Z,15.82
2022-10-16T21:59:18.083Z,11.82
2022-10-16T22:01:46.284Z,11.05
2022-10-16T22:04:17.241Z,17.38
2022-10-16T22:06:47.343Z,14.23
2022-10-16T22:09:16.090Z,12.55
2022-10-16T22:11:46.310Z,15.10
2022-10-16T22:14:18.661Z,12.00
2022-10-16T22:16:48.310Z,13.80
2022-10-16T22:19:19.974Z,13.90
2022-10-16T22:21:51.769Z,14.07
2022-10-16T22:24:20.222Z,17.65
2022-10-16T22:26:49.108Z,18.88
2022-10-16T22:29:18.161Z,14.05
2022-10-16T22:31:46.809Z,17.65
2022-10-16T22:34:15.679Z,14.43
2022-10-16T22:36:44.022Z,18.00
2022-10-16T22:39:13.530Z,18.88
2022-10-16T22:41:41.630Z,19.00
2022-10-16T22:44:13.809Z,16.42
2022-10-16T22:46:42.264Z,14.38
2022-10-16T22:49:10.508Z,16.88
2022-10-16T22:51:38.749Z,13.23
2022-10-16T22:54:06.940Z,15.07
2022-10-16T22:56:36.414Z,19.13
2022-10-16T22:59:04.929Z,10.85
2022-10-16T23:01:37.043Z,11.25
2022-10-16T23:04:05.652Z,16.45
2022-10-16T23:06:35.019Z,13.50
2022-10-16T23:09:03.975Z,14.27
2022-10-16T23:11:32.548Z,15.25
2022-10-16T23:14:02.227Z,10.65
2022-10-16T23:16:30.355Z,14.68
2022-10-16T23:18:59.594Z,13.38
2022-10-16T23:21:28.245Z,14.45
2022-10-16T23:23:57.065Z,12.50
2022-10-16T23:26:27.907Z,9.75
2022-10-16T23:28:58.607Z,8.70
2022-10-16T23:31:29.294Z,14.25
2022-10-16T23:33:58.394Z,11.32
2022-10-16T23:36:27.115Z,10.48
2022-10-16T23:38:56.512Z,14.40
2022-10-16T23:41:24.677Z,10.82
2022-10-16T23:43:52.886Z,12.27
2022-10-16T23:46:21.270Z,17.52
2022-10-16T23:48:50.754Z,15.02
2022-10-16T23:51:18.967Z,11.45
2022-10-16T23:53:47.507Z,11.05
2022-10-16T23:56:15.910Z,10.60
2022-10-16T23:58:44.066Z,13.48
